Time;durP1;ratioP1;P1;durP2;ratioP2;P2;SDS_P1;SDS_P2;PMS_P1;PMS_P2;Temp;Humidity;BMP_temperature;BMP_pressure;BME280_temperature;BME280_humidity;BME280_pressure;Samples;Min_cycle;Max_cycle;Signal;HPM_P1;HPM_P2
2021/09/19 00:01:50;;;;;;;9.38;5.08;;;;;;;10.12;80.64;100683.91;1725135;82;21139;-76
2021/09/19 00:04:16;;;;;;;9.18;4.90;;;;;;;10.10;80.59;100673.41;1724643;82;21050;-75
2021/09/19 00:06:42;;;;;;;11.43;4.85;;;;;;;10.09;80.50;100671.75;1724943;83;21067;-75
2021/09/19 00:09:08;;;;;;;8.13;4.47;;;;;;;10.09;80.42;100670.92;1724984;83;21004;-75
2021/09/19 00:11:34;;;;;;;8.15;4.15;;;;;;;10.09;80.35;100670.42;1724477;83;21511;-75
2021/09/19 00:14:00;;;;;;;8.48;3.35;;;;;;;10.09;80.27;100674.42;1725104;83;21994;-75
2021/09/19 00:16:26;;;;;;;6.17;4.00;;;;;;;10.08;80.19;100675.41;1724742;83;21075;-75
2021/09/19 00:18:52;;;;;;;6.42;3.58;;;;;;;10.07;80.12;100680.39;1720795;83;20972;-75
2021/09/19 00:21:18;;;;;;;6.78;3.67;;;;;;;10.07;80.03;100676.39;1676443;84;21057;-75
2021/09/19 00:23:44;;;;;;;7.20;4.17;;;;;;;10.04;79.98;100672.23;1673642;85;21065;-75
2021/09/19 00:26:10;;;;;;;6.37;3.67;;;;;;;10.05;79.89;100679.73;1673719;85;21112;-75
2021/09/19 00:28:36;;;;;;;6.33;3.62;;;;;;;10.04;79.83;100681.55;1673667;85;21022;-75
2021/09/19 00:31:02;;;;;;;8.55;4.40;;;;;;;10.04;79.75;100680.71;1673721;85;21553;-76
2021/09/19 00:33:28;;;;;;;6.20;4.20;;;;;;;10.04;79.68;100676.72;1673622;85;21021;-75
2021/09/19 00:35:54;;;;;;;9.35;3.90;;;;;;;10.02;79.59;100680.05;1673707;85;21050;-75
2021/09/19 00:38:20;;;;;;;8.45;4.25;;;;;;;10.02;79.55;100674.72;1673636;85;21404;-76
2021/09/19 00:40:46;;;;;;;7.95;3.85;;;;;;;10.02;79.50;100677.39;1673600;85;21071;-76
2021/09/19 00:43:13;;;;;;;9.38;4.00;;;;;;;10.00;79.42;100678.02;1673792;85;20998;-76
2021/09/19 00:45:39;;;;;;;6.97;4.20;;;;;;;10.00;79.36;100678.02;1687499;83;21055;-76
2021/09/19 00:48:05;;;;;;;6.58;3.75;;;;;;;9.99;79.31;100677.71;1701670;84;21026;-76
2021/09/19 00:50:31;;;;;;;6.28;3.90;;;;;;;9.98;79.25;100679.53;1701893;84;21163;-76
2021/09/19 00:52:57;;;;;;;7.70;4.37;;;;;;;9.97;79.21;100674.35;1701957;83;21033;-76
2021/09/19 00:55:23;;;;;;;4.97;3.65;;;;;;;9.97;79.17;100671.20;1701343;84;22331;-76
2021/09/19 00:57:53;;;;;;;7.33;4.95;;;;;;;9.96;79.13;100670.84;1701592;84;20979;-76
2021/09/19 01:00:26;;;;;;;8.10;4.95;;;;;;;9.96;79.07;100672.67;1701871;84;21034;-76
2021/09/19 01:02:54;;;;;;;7.53;4.47;;;;;;;9.94;79.03;100668.85;1702024;84;21291;-76
2021/09/19 01:05:20;;;;;;;8.05;5.28;;;;;;;9.95;78.98;100665.20;1701723;84;21484;-76
2021/09/19 01:07:50;;;;;;;7.10;5.05;;;;;;;9.93;78.95;100668.50;1702112;84;21026;-76
2021/09/19 01:10:20;;;;;;;6.37;4.67;;;;;;;9.92;78.92;100668.16;1702031;84;21002;-76
2021/09/19 01:12:46;;;;;;;8.98;5.15;;;;;;;9.93;78.90;100672.99;1700849;84;21014;-76
2021/09/19 01:15:13;;;;;;;5.33;4.20;;;;;;;9.92;78.88;100671.34;1700672;84;21135;-76
2021/09/19 01:17:40;;;;;;;6.00;4.37;;;;;;;9.91;78.84;100664.34;1673555;85;21011;-76
2021/09/19 01:20:15;;;;;;;6.35;4.58;;;;;;;9.90;78.83;100660.83;1670474;84;21050;-76
2021/09/19 01:22:48;;;;;;;7.22;4.83;;;;;;;9.90;78.82;100657.33;1668412;85;21049;-76
2021/09/19 01:25:15;;;;;;;7.42;4.90;;;;;;;9.87;78.80;100658.98;1666956;84;21078;-76
2021/09/19 01:27:44;;;;;;;14.33;5.53;;;;;;;9.87;78.80;100665.16;1694888;84;21902;-76
2021/09/19 01:30:12;;;;;;;7.92;4.75;;;;;;;9.87;78.78;100662.49;1696496;84;20991;-76
2021/09/19 01:32:40;;;;;;;9.45;5.15;;;;;;;9.85;78.76;100653.00;1696525;84;21067;-75
2021/09/19 01:35:07;;;;;;;8.48;5.10;;;;;;;9.84;78.74;100655.31;1696529;84;21475;-75
2021/09/19 01:37:33;;;;;;;8.58;5.92;;;;;;;9.83;78.72;100653.63;1696689;84;21077;-75
2021/09/19 01:39:59;;;;;;;10.18;4.72;;;;;;;9.81;78.74;100647.64;1682948;84;21161;-75
2021/09/19 01:42:27;;;;;;;8.25;4.22;;;;;;;9.80;78.71;100652.62;1668330;85;21078;-76
2021/09/19 01:44:53;;;;;;;6.10;4.50;;;;;;;9.77;78.71;100645.80;1668649;86;21483;-76
2021/09/19 01:47:19;;;;;;;7.53;4.22;;;;;;;9.77;78.74;100659.61;1668394;86;21535;-75
2021/09/19 01:49:49;;;;;;;13.03;4.75;;;;;;;9.78;78.73;100655.95;1668414;86;21713;-75
2021/09/19 01:52:16;;;;;;;9.50;4.97;;;;;;;9.78;78.71;100658.63;1668650;84;26267;-76
2021/09/19 01:54:42;;;;;;;6.12;4.62;;;;;;;9.78;78.70;100655.95;1668529;86;21393;-75
2021/09/19 01:57:08;;;;;;;6.72;4.75;;;;;;;9.77;78.70;100656.94;1668492;86;21034;-75
2021/09/19 01:59:35;;;;;;;8.85;5.17;;;;;;;9.75;78.70;100651.76;1668510;86;21079;-75
2021/09/19 02:02:01;;;;;;;6.72;5.00;;;;;;;9.75;78.70;100649.59;1668546;86;21011;-75
2021/09/19 02:04:27;;;;;;;10.82;5.17;;;;;;;9.75;78.71;100645.59;1668245;86;21511;-75
2021/09/19 02:06:53;;;;;;;5.92;4.70;;;;;;;9.72;78.70;100651.23;1672553;84;21085;-75
2021/09/19 02:09:19;;;;;;;7.53;4.80;;;;;;;9.72;78.70;100641.92;1696632;84;20923;-75
2021/09/19 02:11:45;;;;;;;10.38;5.30;;;;;;;9.73;78.71;100650.25;1696632;84;21031;-76
2021/09/19 02:14:11;;;;;;;9.05;5.80;;;;;;;9.71;78.72;100646.93;1696969;84;20912;-76
2021/09/19 02:16:37;;;;;;;7.28;5.33;;;;;;;9.69;78.72;100655.55;1696503;84;21131;-76
2021/09/19 02:19:03;;;;;;;8.80;5.25;;;;;;;9.68;78.72;100659.20;1696434;84;21022;-76
2021/09/19 02:21:29;;;;;;;7.85;5.42;;;;;;;9.69;78.74;100655.55;1696363;83;20883;-76
2021/09/19 02:23:55;;;;;;;8.93;5.33;;;;;;;9.68;78.75;100656.53;1696855;84;21038;-76
2021/09/19 02:26:21;;;;;;;10.48;5.83;;;;;;;9.67;78.77;100657.55;1696320;84;21512;-76
2021/09/19 02:28:47;;;;;;;11.33;6.08;;;;;;;9.67;78.78;100660.22;1696778;84;22118;-76
2021/09/19 02:31:13;;;;;;;8.45;5.95;;;;;;;9.64;78.79;100652.55;1696427;84;21755;-76
2021/09/19 02:33:38;;;;;;;12.10;6.65;;;;;;;9.62;78.81;100650.03;1696462;84;20990;-76
2021/09/19 02:36:04;;;;;;;9.08;6.85;;;;;;;9.61;78.84;100648.84;1696583;84;20994;-76
2021/09/19 02:38:30;;;;;;;13.48;6.58;;;;;;;9.60;78.85;100651.19;1695899;84;20994;-76
2021/09/19 02:40:57;;;;;;;10.58;5.75;;;;;;;9.61;78.86;100656.83;1696370;84;21974;-76
2021/09/19 02:43:23;;;;;;;12.07;5.95;;;;;;;9.60;78.89;100652.52;1696421;84;21034;-76
2021/09/19 02:45:50;;;;;;;8.50;6.25;;;;;;;9.61;78.91;100652.34;1696438;84;21070;-76
2021/09/19 02:48:16;;;;;;;11.05;7.05;;;;;;;9.63;78.93;100654.86;1696471;84;21015;-76
2021/09/19 02:50:42;;;;;;;8.93;6.03;;;;;;;9.64;78.94;100653.36;1696671;84;20994;-76
2021/09/19 02:53:08;;;;;;;7.67;5.72;;;;;;;9.64;78.97;100652.02;1696586;84;21710;-76
2021/09/19 02:55:34;;;;;;;11.63;6.20;;;;;;;9.65;79.01;100658.19;1696568;84;21467;-76
2021/09/19 02:58:00;;;;;;;10.90;6.00;;;;;;;9.62;79.01;100655.36;1696632;84;21038;-76
2021/09/19 03:00:26;;;;;;;7.17;5.50;;;;;;;9.60;79.03;100655.18;1696355;84;21464;-76
2021/09/19 03:02:52;;;;;;;8.83;6.37;;;;;;;9.59;79.08;100653.50;1696557;84;20947;-76
2021/09/19 03:05:18;;;;;;;8.23;5.53;;;;;;;9.58;79.11;100653.16;1696305;84;21057;-76
2021/09/19 03:07:44;;;;;;;7.67;5.92;;;;;;;9.57;79.11;100646.98;1695745;84;21058;-76
2021/09/19 03:10:11;;;;;;;8.90;6.28;;;;;;;9.60;79.14;100649.86;1696866;84;21044;-76
2021/09/19 03:12:37;;;;;;;9.58;6.10;;;;;;;9.60;79.15;100645.86;1696595;84;21038;-76
2021/09/19 03:15:05;;;;;;;8.90;5.97;;;;;;;9.58;79.19;100641.17;1696723;84;21042;-76
2021/09/19 03:17:31;;;;;;;11.50;6.33;;;;;;;9.59;79.20;100644.19;1668523;86;21035;-76
2021/09/19 03:19:57;;;;;;;7.90;5.70;;;;;;;9.59;79.23;100637.53;1674626;84;21023;-76
2021/09/19 03:22:23;;;;;;;10.32;6.05;;;;;;;9.58;79.23;100645.16;1695623;84;21102;-76
2021/09/19 03:24:49;;;;;;;10.75;6.33;;;;;;;9.54;79.24;100644.16;1696080;84;21079;-76
2021/09/19 03:27:15;;;;;;;13.22;7.03;;;;;;;9.53;79.28;100642.47;1696055;84;21571;-76
2021/09/19 03:29:41;;;;;;;8.35;6.42;;;;;;;9.52;79.29;100636.83;1695823;84;21804;-76
2021/09/19 03:32:07;;;;;;;8.78;6.47;;;;;;;9.51;79.31;100636.48;1695732;84;21058;-76
2021/09/19 03:34:34;;;;;;;9.63;5.78;;;;;;;9.50;79.35;100636.63;1713605;83;21031;-77
2021/09/19 03:37:03;;;;;;;10.58;6.33;;;;;;;9.49;79.37;100640.30;1725044;83;20987;-77
2021/09/19 03:39:29;;;;;;;8.75;6.15;;;;;;;9.49;79.39;100637.64;1725045;83;21012;-77
2021/09/19 03:41:55;;;;;;;8.35;6.55;;;;;;;9.47;79.41;100639.61;1724657;82;21106;-77
2021/09/19 03:44:21;;;;;;;9.15;6.28;;;;;;;9.45;79.43;100637.13;1724887;83;21141;-77
2021/09/19 03:46:47;;;;;;;9.83;6.55;;;;;;;9.44;79.46;100640.77;1724438;83;21570;-77
2021/09/19 03:49:13;;;;;;;10.28;6.65;;;;;;;9.44;79.50;100640.77;1725000;82;21015;-77
2021/09/19 03:51:39;;;;;;;9.50;6.30;;;;;;;9.42;79.53;100638.77;1725034;83;20995;-77
2021/09/19 03:54:05;;;;;;;12.73;6.20;;;;;;;9.42;79.55;100641.44;1725092;82;21196;-77
2021/09/19 03:56:31;;;;;;;14.38;6.65;;;;;;;9.41;79.57;100637.09;1724687;83;21050;-77
2021/09/19 03:58:57;;;;;;;11.15;7.25;;;;;;;9.41;79.60;100639.75;1725181;83;20987;-77
2021/09/19 04:01:23;;;;;;;11.28;7.67;;;;;;;9.41;79.64;100641.08;1724270;82;20995;-77
2021/09/19 04:03:49;;;;;;;9.38;6.55;;;;;;;9.42;79.66;100642.77;1725161;83;20988;-76
2021/09/19 04:06:15;;;;;;;10.45;6.15;;;;;;;9.42;79.67;100642.77;1722347;83;21103;-76
2021/09/19 04:08:41;;;;;;;15.10;6.90;;;;;;;9.43;79.70;100648.89;1703890;83;21003;-76
2021/09/19 04:11:07;;;;;;;9.20;6.28;;;;;;;9.42;79.74;100649.42;1701711;79;21163;-77
2021/09/19 04:13:33;;;;;;;12.53;6.03;;;;;;;9.42;79.75;100645.42;1646474;85;21058;-77
2021/09/19 04:16:00;;;;;;;9.50;6.28;;;;;;;9.41;79.79;100643.74;1626655;88;20987;-77
2021/09/19 04:18:27;;;;;;;10.93;6.87;;;;;;;9.42;79.81;100649.42;1626408;88;21875;-77
2021/09/19 04:20:54;;;;;;;11.83;6.17;;;;;;;9.41;79.83;100646.41;1626492;88;21375;-77
2021/09/19 04:23:22;;;;;;;10.18;6.50;;;;;;;9.40;79.84;100648.72;1626685;88;21069;-77
2021/09/19 04:25:47;;;;;;;8.90;6.30;;;;;;;9.39;79.86;100652.36;1626801;87;21090;-77
2021/09/19 04:28:13;;;;;;;12.10;7.20;;;;;;;9.38;79.89;100647.22;1647289;87;21005;-77
2021/09/19 04:30:39;;;;;;;10.32;6.42;;;;;;;9.38;79.95;100653.38;1644885;87;21096;-77
2021/09/19 04:33:05;;;;;;;10.18;6.47;;;;;;;9.37;79.97;100655.69;1647331;87;21616;-76
2021/09/19 04:35:31;;;;;;;14.60;6.47;;;;;;;9.35;80.00;100663.02;1647284;87;21034;-76
2021/09/19 04:37:57;;;;;;;12.68;6.97;;;;;;;9.37;80.01;100665.01;1644837;87;21114;-76
2021/09/19 04:40:23;;;;;;;9.38;6.30;;;;;;;9.37;80.04;100665.01;1647206;87;20950;-76
2021/09/19 04:42:49;;;;;;;14.83;7.67;;;;;;;9.34;80.08;100661.33;1644898;87;21070;-76
2021/09/19 04:45:15;;;;;;;15.25;6.85;;;;;;;9.37;80.09;100665.01;1646875;87;21114;-76
2021/09/19 04:47:41;;;;;;;9.18;6.55;;;;;;;9.38;80.12;100669.34;1647249;87;20944;-76
2021/09/19 04:50:08;;;;;;;12.45;8.03;;;;;;;9.38;80.15;100669.84;1647279;87;21090;-77
2021/09/19 04:52:34;;;;;;;12.90;7.95;;;;;;;9.38;80.19;100673.34;1644662;87;21542;-76
2021/09/19 04:55:00;;;;;;;11.70;7.20;;;;;;;9.38;80.20;100676.00;1647241;87;21771;-76
2021/09/19 04:57:26;;;;;;;11.30;6.62;;;;;;;9.39;80.24;100676.84;1644967;87;21010;-76
2021/09/19 04:59:52;;;;;;;9.10;7.00;;;;;;;9.41;80.28;100683.67;1647012;87;21376;-76
2021/09/19 05:02:18;;;;;;;10.18;7.17;;;;;;;9.42;80.30;100682.69;1646800;86;21038;-77
2021/09/19 05:04:44;;;;;;;11.12;7.17;;;;;;;9.43;80.33;100677.69;1644847;87;21046;-77
2021/09/19 05:07:10;;;;;;;10.10;6.72;;;;;;;9.46;80.36;100677.37;1643843;87;21150;-77
2021/09/19 05:09:36;;;;;;;13.78;6.97;;;;;;;9.47;80.39;100680.87;1626083;88;21557;-77
2021/09/19 05:12:03;;;;;;;13.40;6.53;;;;;;;9.47;80.42;100687.03;1642010;86;21036;-77
2021/09/19 05:14:29;;;;;;;9.00;6.60;;;;;;;9.49;80.43;100683.74;1641427;87;21030;-77
2021/09/19 05:16:55;;;;;;;9.55;6.90;;;;;;;9.49;80.46;100685.07;1663513;85;21043;-77
2021/09/19 05:19:21;;;;;;;12.10;6.95;;;;;;;9.50;80.48;100677.40;1670738;85;21291;-77
2021/09/19 05:21:47;;;;;;;12.82;7.17;;;;;;;9.51;80.53;100677.75;1638087;86;21047;-77
2021/09/19 05:24:13;;;;;;;13.00;6.47;;;;;;;9.51;80.54;100673.75;1599531;89;21552;-77
2021/09/19 05:26:39;;;;;;;15.13;8.13;;;;;;;9.53;80.56;100677.09;1599558;89;21061;-77
2021/09/19 05:29:05;;;;;;;12.40;7.60;;;;;;;9.56;80.59;100679.95;1599631;89;20943;-77
2021/09/19 05:31:31;;;;;;;13.10;7.65;;;;;;;9.58;80.60;100682.44;1609651;88;21189;-77
2021/09/19 05:33:58;;;;;;;10.68;7.37;;;;;;;9.60;80.62;100680.48;1599767;89;21051;-77
2021/09/19 05:36:24;;;;;;;11.53;7.50;;;;;;;9.62;80.63;100677.98;1643414;87;21046;-77
2021/09/19 05:38:50;;;;;;;17.00;8.93;;;;;;;9.66;80.65;100681.17;1641301;87;21587;-77
2021/09/19 05:41:16;;;;;;;10.60;7.90;;;;;;;9.69;80.66;100680.85;1648080;85;21099;-77
2021/09/19 05:43:42;;;;;;;10.63;7.67;;;;;;;9.70;80.67;100682.04;1668497;86;21884;-77
2021/09/19 05:46:08;;;;;;;11.22;7.87;;;;;;;9.75;80.70;100690.87;1647712;86;20977;-77
2021/09/19 05:48:35;;;;;;;10.63;7.42;;;;;;;9.77;80.71;100692.89;1608932;88;21525;-77
2021/09/19 05:51:02;;;;;;;10.48;7.62;;;;;;;9.79;80.71;100698.89;1645029;86;21039;-77
2021/09/19 05:53:29;;;;;;;13.00;6.25;;;;;;;9.81;80.74;100700.42;1632143;86;21557;-77
2021/09/19 05:55:55;;;;;;;11.25;7.03;;;;;;;9.84;80.74;100697.93;1625474;87;21187;-77
2021/09/19 05:58:21;;;;;;;10.85;6.80;;;;;;;9.89;80.75;100696.94;1609220;89;21081;-77
2021/09/19 06:00:47;;;;;;;11.28;7.08;;;;;;;9.94;80.77;100691.98;1627050;87;20905;-76
2021/09/19 06:03:13;;;;;;;12.73;7.60;;;;;;;9.90;80.75;100678.64;1584843;87;21619;-76
2021/09/19 06:05:39;;;;;;;14.60;7.72;;;;;;;9.97;80.77;100688.52;1639266;86;21049;-76
2021/09/19 06:08:05;;;;;;;15.28;8.10;;;;;;;10.02;80.76;100691.55;1644636;86;21337;-76
2021/09/19 06:10:31;;;;;;;23.85;11.45;;;;;;;10.06;80.77;100696.06;1639572;86;21024;-76
2021/09/19 06:12:57;;;;;;;11.70;7.67;;;;;;;10.09;80.76;100693.08;1632356;87;21075;-76
2021/09/19 06:15:23;;;;;;;13.95;8.38;;;;;;;10.14;80.75;100698.77;1632669;87;21726;-76
2021/09/19 06:17:49;;;;;;;11.22;7.12;;;;;;;10.20;80.74;100696.83;1632745;87;20982;-76
2021/09/19 06:20:15;;;;;;;17.15;8.30;;;;;;;10.25;80.76;100706.49;1644285;86;21586;-76
2021/09/19 06:22:41;;;;;;;13.15;7.55;;;;;;;10.26;80.75;100699.34;1626876;88;21023;-76
2021/09/19 06:25:07;;;;;;;12.25;6.90;;;;;;;10.31;80.74;100697.84;1627007;88;21002;-76
2021/09/19 06:27:34;;;;;;;23.25;8.60;;;;;;;10.31;80.74;100703.17;1626575;88;21084;-75
2021/09/19 06:30:00;;;;;;;49.05;26.00;;;;;;;10.35;80.71;100699.20;1626787;88;21340;-76
2021/09/19 06:32:26;;;;;;;42.65;23.05;;;;;;;10.37;80.71;100707.89;1645232;87;21161;-76
2021/09/19 06:34:52;;;;;;;25.80;12.63;;;;;;;10.41;80.66;100702.54;1628212;87;21565;-76
2021/09/19 06:37:18;;;;;;;17.37;8.75;;;;;;;10.44;80.67;100703.58;1636639;87;21681;-76
2021/09/19 06:39:44;;;;;;;14.43;7.75;;;;;;;10.46;80.62;100704.73;1624848;88;21096;-76
2021/09/19 06:42:10;;;;;;;12.28;7.30;;;;;;;10.46;80.58;100694.91;1626343;88;21077;-75
2021/09/19 06:44:36;;;;;;;10.28;7.53;;;;;;;10.44;80.58;100699.58;1626919;88;21185;-75
2021/09/19 06:47:02;;;;;;;9.63;8.18;;;;;;;10.43;80.56;100703.23;1631508;87;21090;-76
2021/09/19 06:49:28;;;;;;;15.05;8.45;;;;;;;10.45;80.52;100698.56;1634094;86;21076;-76
2021/09/19 06:51:55;;;;;;;13.68;8.53;;;;;;;10.47;80.48;100703.25;1628534;86;21071;-76
2021/09/19 06:54:21;;;;;;;12.18;8.50;;;;;;;10.53;80.43;100703.92;1610598;88;21090;-76
2021/09/19 06:56:48;;;;;;;11.12;8.48;;;;;;;10.60;80.39;100703.27;1598586;89;21237;-76
2021/09/19 06:59:14;;;;;;;11.97;8.20;;;;;;;10.61;80.36;100705.79;1647482;86;21061;-75
2021/09/19 07:01:40;;;;;;;13.03;7.62;;;;;;;10.62;80.33;100710.14;1648773;86;21080;-75
2021/09/19 07:04:06;;;;;;;12.35;8.65;;;;;;;10.66;80.32;100706.64;1627209;88;21050;-75
2021/09/19 07:06:32;;;;;;;15.40;9.13;;;;;;;10.68;80.26;100705.97;1626493;88;21033;-75
2021/09/19 07:08:59;;;;;;;19.48;10.55;;;;;;;10.69;80.23;100696.98;1625685;88;21193;-76
2021/09/19 07:11:25;;;;;;;15.30;8.75;;;;;;;10.71;80.20;100691.81;1625741;87;21065;-76
2021/09/19 07:13:51;;;;;;;13.75;7.95;;;;;;;10.73;80.17;100692.98;1609887;88;21597;-77
2021/09/19 07:16:17;;;;;;;13.25;9.20;;;;;;;10.74;80.15;100691.97;1608007;89;21500;-76
2021/09/19 07:18:43;;;;;;;24.18;12.90;;;;;;;10.77;80.14;100690.30;1618099;87;21107;-77
2021/09/19 07:21:09;;;;;;;31.82;15.23;;;;;;;10.82;80.09;100686.66;1644567;87;21149;-77
2021/09/19 07:23:36;;;;;;;16.05;9.40;;;;;;;10.85;80.06;100687.66;1633725;86;21067;-76
2021/09/19 07:26:02;;;;;;;13.00;8.55;;;;;;;10.92;80.06;100694.00;1640905;87;21111;-76
2021/09/19 07:28:28;;;;;;;17.73;10.45;;;;;;;10.95;80.04;100695.00;1638441;87;21505;-76
2021/09/19 07:30:54;;;;;;;24.47;14.13;;;;;;;10.99;80.00;100689.68;1628134;87;21144;-75
2021/09/19 07:33:22;;;;;;;17.02;10.60;;;;;;;11.02;79.97;100693.34;1620102;88;21469;-75
2021/09/19 07:35:49;;;;;;;17.75;12.35;;;;;;;11.08;79.92;100692.70;1616228;87;21029;-76
2021/09/19 07:38:16;;;;;;;15.48;11.00;;;;;;;11.11;79.87;100696.38;1611074;87;21058;-75
2021/09/19 07:40:43;;;;;;;14.43;11.12;;;;;;;11.12;79.83;100694.02;1617096;88;21725;-75
2021/09/19 07:43:09;;;;;;;18.73;14.35;;;;;;;11.20;79.76;100703.87;1618300;88;21062;-75
2021/09/19 07:45:35;;;;;;;27.82;21.30;;;;;;;11.24;79.72;100700.71;1619375;88;21119;-76
2021/09/19 07:48:03;;;;;;;27.17;21.75;;;;;;;11.31;79.67;100697.70;1619921;88;21020;-75
2021/09/19 07:50:30;;;;;;;22.85;16.57;;;;;;;11.36;79.61;100696.72;1619184;87;21046;-75
2021/09/19 07:52:56;;;;;;;16.80;11.38;;;;;;;11.40;79.59;100698.02;1630391;87;21043;-75
2021/09/19 07:55:23;;;;;;;16.90;13.78;;;;;;;11.45;79.56;100691.69;1628656;87;21165;-76
2021/09/19 07:57:49;;;;;;;36.15;29.40;;;;;;;11.46;79.51;100697.87;1619759;88;21776;-75
2021/09/19 08:00:15;;;;;;;18.60;13.50;;;;;;;11.50;79.43;100705.36;1618771;87;21047;-76
2021/09/19 08:02:41;;;;;;;13.65;10.82;;;;;;;11.53;79.40;100701.04;1620249;87;21075;-75
2021/09/19 08:05:08;;;;;;;16.87;9.05;;;;;;;11.59;79.35;100701.34;1624417;87;21565;-76
2021/09/19 08:07:34;;;;;;;12.50;8.03;;;;;;;11.63;79.29;100700.02;1618503;88;21043;-75
2021/09/19 08:10:00;;;;;;;11.63;7.90;;;;;;;11.68;79.21;100700.35;1618554;88;21582;-72
2021/09/19 08:12:26;;;;;;;17.80;8.63;;;;;;;11.74;79.11;100693.86;1591310;89;21065;-76
2021/09/19 08:14:52;;;;;;;12.82;8.15;;;;;;;11.78;79.11;100699.69;1622166;87;21067;-77
2021/09/19 08:17:18;;;;;;;12.95;8.05;;;;;;;11.81;79.05;100707.37;1635470;87;21063;-77
2021/09/19 08:19:44;;;;;;;12.28;7.62;;;;;;;11.80;79.02;100707.02;1618897;87;21115;-77
2021/09/19 08:22:10;;;;;;;12.82;8.25;;;;;;;11.80;79.00;100708.36;1626176;87;21161;-77
2021/09/19 08:24:36;;;;;;;15.08;8.55;;;;;;;11.86;78.93;100704.50;1643465;87;21035;-77
2021/09/19 08:27:03;;;;;;;11.83;7.72;;;;;;;11.93;78.85;100707.31;1633370;87;21050;-76
2021/09/19 08:29:30;;;;;;;20.05;10.48;;;;;;;11.96;78.75;100708.34;1644681;87;21022;-76
2021/09/19 08:31:56;;;;;;;20.95;11.18;;;;;;;12.04;78.72;100709.63;1644606;87;21530;-77
2021/09/19 08:34:22;;;;;;;10.58;7.25;;;;;;;12.14;78.66;100703.58;1623910;86;21819;-77
2021/09/19 08:36:48;;;;;;;10.98;7.85;;;;;;;12.19;78.56;100710.59;1619850;88;21059;-77
2021/09/19 08:39:14;;;;;;;10.63;7.85;;;;;;;12.26;78.52;100704.89;1619877;88;21321;-77
2021/09/19 08:41:40;;;;;;;11.55;7.83;;;;;;;12.36;78.41;100704.67;1619925;88;21047;-77
2021/09/19 08:44:06;;;;;;;12.23;7.90;;;;;;;12.43;78.36;100707.81;1620094;87;21074;-76
2021/09/19 08:46:32;;;;;;;19.57;9.78;;;;;;;12.46;78.33;100707.46;1621796;87;22168;-76
2021/09/19 08:48:58;;;;;;;20.65;8.73;;;;;;;12.53;78.25;100704.92;1631754;87;21068;-76
2021/09/19 08:51:25;;;;;;;12.45;9.00;;;;;;;12.60;78.15;100710.40;1622238;87;21033;-76
2021/09/19 08:53:51;;;;;;;13.00;9.10;;;;;;;12.57;78.05;100710.75;1619007;88;21036;-77
2021/09/19 08:56:25;;;;;;;15.40;9.10;;;;;;;12.68;78.02;100710.36;1617609;87;21027;-77
2021/09/19 08:58:52;;;;;;;13.15;8.28;;;;;;;12.80;77.90;100706.30;1617180;88;21496;-77
2021/09/19 09:01:18;;;;;;;14.40;9.00;;;;;;;12.82;77.81;100708.27;1620135;87;21094;-77
2021/09/19 09:03:44;;;;;;;9.78;7.50;;;;;;;12.88;77.71;100710.23;1618551;88;21072;-77
2021/09/19 09:06:10;;;;;;;11.25;8.53;;;;;;;12.94;77.61;100708.21;1590780;90;21053;-77
2021/09/19 09:08:36;;;;;;;12.05;8.53;;;;;;;12.97;77.55;100713.20;1594347;89;21064;-76
2021/09/19 09:11:05;;;;;;;11.50;8.15;;;;;;;12.96;77.42;100711.53;1594272;90;21194;-77
2021/09/19 09:13:35;;;;;;;15.63;7.80;;;;;;;13.01;77.32;100715.86;1594339;88;21033;-77
2021/09/19 09:16:11;;;;;;;13.25;8.33;;;;;;;13.03;77.16;100709.81;1583183;90;21592;-77
2021/09/19 09:18:44;;;;;;;9.63;7.05;;;;;;;13.06;77.06;100715.30;1610299;87;21084;-76
2021/09/19 09:21:23;;;;;;;10.55;7.33;;;;;;;13.10;76.95;100716.15;1616576;87;21050;-77
2021/09/19 09:23:54;;;;;;;14.97;7.80;;;;;;;13.16;76.79;100702.56;1616912;88;21564;-77
2021/09/19 09:26:34;;;;;;;11.55;8.10;;;;;;;13.16;76.79;100702.56;1618499;88;22028;-78
2021/09/19 09:29:11;;;;;;;;;;;;;;;13.26;76.62;100705.33;1622058;88;21555;-77
2021/09/19 09:31:47;;;;;;;9.35;6.30;;;;;;;13.26;76.52;100709.34;1619901;88;20994;-77
2021/09/19 09:34:25;;;;;;;11.75;7.47;;;;;;;13.24;76.38;100711.86;1621953;87;21077;-77
2021/09/19 09:36:55;;;;;;;9.85;7.25;;;;;;;13.22;76.24;100709.38;1616730;88;21147;-77
2021/09/19 09:39:36;;;;;;;11.00;7.35;;;;;;;13.25;76.16;100718.39;1614928;88;21112;-77
2021/09/19 09:42:11;;;;;;;14.35;8.55;;;;;;;13.24;76.00;100719.39;1596911;88;21363;-77
2021/09/19 09:44:42;;;;;;;9.73;7.67;;;;;;;13.24;75.90;100720.73;1589866;88;21588;-77
2021/09/19 09:47:19;;;;;;;11.45;7.95;;;;;;;13.29;75.82;100715.69;1546938;91;21060;-77
2021/09/19 09:49:52;;;;;;;16.97;10.30;;;;;;;13.34;75.75;100715.95;1603594;88;21227;-77
2021/09/19 09:52:36;;;;;;;13.65;7.53;;;;;;;13.40;75.70;100709.06;1618731;88;21054;-77
2021/09/19 09:55:08;;;;;;;11.68;7.10;;;;;;;13.46;75.60;100713.19;1613340;88;21080;-77
2021/09/19 09:57:56;;;;;;;10.70;7.47;;;;;;;13.46;75.48;100711.84;1598294;87;21077;-78
2021/09/19 10:00:23;;;;;;;11.83;8.38;;;;;;;13.45;75.34;100706.16;1592641;88;21602;-77
2021/09/19 10:02:50;;;;;;;8.13;6.47;;;;;;;13.51;75.27;100706.77;1598766;89;21807;-77
2021/09/19 10:05:18;;;;;;;16.27;8.30;;;;;;;13.58;75.15;100702.84;1598424;89;21090;-77
2021/09/19 10:07:44;;;;;;;11.95;7.53;;;;;;;13.59;75.03;100703.18;1598477;89;21581;-77
2021/09/19 10:10:13;;;;;;;13.20;7.33;;;;;;;13.62;74.91;100703.31;1598642;89;21380;-77
2021/09/19 10:12:39;;;;;;;16.52;7.87;;;;;;;13.67;74.80;100699.59;1598413;88;21078;-77
2021/09/19 10:15:06;;;;;;;10.10;6.87;;;;;;;13.67;74.66;100703.62;1642832;87;21356;-77
2021/09/19 10:17:33;;;;;;;11.83;6.90;;;;;;;13.69;74.54;100705.59;1646301;87;21028;-77
2021/09/19 10:19:59;;;;;;;10.68;7.17;;;;;;;13.72;74.42;100702.58;1644706;87;21030;-77
2021/09/19 10:22:31;;;;;;;9.80;6.87;;;;;;;13.72;74.29;100703.91;1645252;87;21641;-77
2021/09/19 10:24:57;;;;;;;13.85;7.70;;;;;;;13.73;74.09;100704.22;1645075;87;21039;-77
2021/09/19 10:27:34;;;;;;;15.15;7.35;;;;;;;13.85;73.94;100707.63;1645867;85;21157;-77
2021/09/19 10:30:07;;;;;;;15.15;9.18;;;;;;;13.99;73.87;100712.67;1641467;87;21079;-77
2021/09/19 10:32:46;;;;;;;11.83;7.97;;;;;;;14.06;73.63;100710.92;1646271;87;21520;-77
2021/09/19 10:35:19;;;;;;;12.05;7.53;;;;;;;14.19;73.53;100711.59;1646338;87;21052;-77
2021/09/19 10:38:00;;;;;;;12.55;8.80;;;;;;;14.32;73.36;100707.77;1646343;87;21055;-77
2021/09/19 10:40:36;;;;;;;9.85;6.97;;;;;;;14.40;73.18;100699.62;1621630;87;21953;-77
2021/09/19 10:43:21;;;;;;;8.93;6.60;;;;;;;14.53;73.04;100704.34;1624963;88;21062;-77
2021/09/19 10:45:51;;;;;;;8.08;5.97;;;;;;;14.65;72.85;100702.83;1645906;87;21047;-77
2021/09/19 10:48:32;;;;;;;13.78;8.80;;;;;;;14.71;72.61;100700.72;1646486;87;21541;-77
2021/09/19 10:51:07;;;;;;;10.28;5.60;;;;;;;14.74;72.26;100700.37;1646075;87;21032;-77
2021/09/19 10:53:45;;;;;;;14.95;8.08;;;;;;;14.74;72.26;100700.37;1646162;87;21251;-77
2021/09/19 10:56:11;;;;;;;9.20;6.00;;;;;;;14.70;71.72;100697.73;1646346;87;21024;-77
2021/09/19 10:58:43;;;;;;;8.75;6.55;;;;;;;14.74;71.51;100697.68;1645998;87;21435;-77
2021/09/19 11:01:22;;;;;;;7.90;5.12;;;;;;;14.85;71.34;100695.81;1646018;87;21504;-77
2021/09/19 11:04:09;;;;;;;7.55;5.37;;;;;;;14.91;71.06;100692.39;1624472;88;21066;-77
2021/09/19 11:06:38;;;;;;;10.93;7.22;;;;;;;14.99;70.80;100687.71;1646293;87;21762;-77
2021/09/19 11:09:25;;;;;;;9.38;5.10;;;;;;;14.86;70.50;100662.58;1646111;87;21031;-77
2021/09/19 11:12:19;;;;;;;11.95;5.00;;;;;;;14.74;69.85;100688.28;1646070;85;21092;-77
2021/09/19 11:15:00;;;;;;;16.73;7.90;;;;;;;14.74;69.85;100688.28;1645929;86;21048;-77
2021/09/19 11:17:29;;;;;;;7.55;5.87;;;;;;;14.66;69.71;100689.73;1646336;87;21079;-77
2021/09/19 11:20:21;;;;;;;9.03;4.75;;;;;;;14.60;69.53;100687.81;1646445;87;21154;-77
2021/09/19 11:22:49;;;;;;;10.30;4.78;;;;;;;14.52;69.34;100691.94;1646340;87;21504;-77
2021/09/19 11:25:17;;;;;;;19.45;9.95;;;;;;;14.46;69.20;100690.31;1646249;87;21104;-77
2021/09/19 11:27:45;;;;;;;10.32;6.90;;;;;;;14.53;69.06;100689.05;1646349;87;21083;-77